Ayrshire, United Kingdom
Current Conditions -  °F | °C
As of 10:20 AM on Wednesday 22 Oct 2014 (Local Time) from EGPK Reporting Station
Light Rain Light Rain  
Wind Chill: 11°   Ceiling: 2000
Heat Index: 11°   Visibility: 6mi
Dew Point:   Wind: 10mph
Humidity: 88%   Direction: 210°SSW
Pressure: 30.09"   Gusts: NA
Location:  55.39°N, 4.46°W
Report Text: EGPK 220920Z 21009KT 9000 -RA SCT012 BKN020 11/09 Q1019
Loading
Personal Weather Stations






























Interactive Weather Map
Tropical Storm Tracking
New forecast layout! Learn more

10-Day Weather Forecast

Advertisements
Track Severe Weather on mobile